createdAt,value
2022-11-09T00:01:28.813Z,51.70
2022-11-09T00:04:01.862Z,47.73
2022-11-09T00:06:31.277Z,50.27
2022-11-09T00:09:05.746Z,49.03
2022-11-09T00:11:34.612Z,44.87
2022-11-09T00:14:02.099Z,47.67
2022-11-09T00:16:29.656Z,48.17
2022-11-09T00:18:57.088Z,50.27
2022-11-09T00:21:25.855Z,46.73
2022-11-09T00:23:54.073Z,44.83
2022-11-09T00:26:22.607Z,47.60
2022-11-09T00:28:51.250Z,42.73
2022-11-09T00:31:21.878Z,47.13
2022-11-09T00:33:51.616Z,46.07
2022-11-09T00:36:20.739Z,48.27
2022-11-09T00:38:55.151Z,55.43
2022-11-09T00:41:23.926Z,56.03
2022-11-09T00:43:52.455Z,48.70
2022-11-09T00:46:21.483Z,44.90
2022-11-09T00:48:51.420Z,42.40
2022-11-09T00:51:19.760Z,46.73
2022-11-09T00:53:48.497Z,38.50
2022-11-09T00:56:16.246Z,33.13
2022-11-09T00:58:43.776Z,34.17
2022-11-09T01:01:17.318Z,33.30
2022-11-09T01:03:46.327Z,38.67
2022-11-09T01:06:20.888Z,33.83
2022-11-09T01:08:49.463Z,36.43
2022-11-09T01:11:22.275Z,36.53
2022-11-09T01:13:52.945Z,33.23
2022-11-09T01:16:23.476Z,37.90
2022-11-09T01:18:55.379Z,37.83
2022-11-09T01:21:25.540Z,33.83
2022-11-09T01:23:53.198Z,39.03
2022-11-09T01:26:20.824Z,36.80
2022-11-09T01:28:50.355Z,42.50
2022-11-09T01:31:23.053Z,39.10
2022-11-09T01:33:50.843Z,43.60
2022-11-09T01:36:23.925Z,36.77
2022-11-09T01:38:52.232Z,36.17
2022-11-09T01:41:27.783Z,35.37
2022-11-09T01:44:16.518Z,36.40
2022-11-09T01:47:06.744Z,43.07
2022-11-09T01:49:41.144Z,37.53
2022-11-09T01:52:22.096Z,40.57
2022-11-09T01:55:02.462Z,37.03
2022-11-09T01:57:41.627Z,44.53
2022-11-09T02:00:15.085Z,38.93
2022-11-09T02:03:01.731Z,46.97
2022-11-09T02:05:33.319Z,45.37
2022-11-09T02:08:03.735Z,42.77
2022-11-09T02:10:43.228Z,45.77
2022-11-09T02:13:14.047Z,46.50
2022-11-09T02:15:45.703Z,37.90
2022-11-09T02:18:13.987Z,42.43
2022-11-09T02:20:54.821Z,47.67
2022-11-09T02:23:25.603Z,39.87
2022-11-09T02:26:09.601Z,39.33
2022-11-09T02:28:40.220Z,38.30
2022-11-09T02:31:11.888Z,41.50
2022-11-09T02:33:59.269Z,40.17
2022-11-09T02:36:26.880Z,40.47
2022-11-09T02:38:57.234Z,46.47
2022-11-09T02:41:25.520Z,46.23
2022-11-09T02:43:54.421Z,41.57
2022-11-09T02:46:34.523Z,56.03
2022-11-09T02:49:04.060Z,53.27
2022-11-09T02:51:32.154Z,56.27
2022-11-09T02:53:59.974Z,53.47
2022-11-09T02:56:27.846Z,53.80
2022-11-09T02:58:56.093Z,44.03
2022-11-09T03:01:23.771Z,46.60
2022-11-09T03:03:51.702Z,48.43
2022-11-09T03:06:19.132Z,49.80
2022-11-09T03:08:47.450Z,52.13
2022-11-09T03:11:15.503Z,52.93
2022-11-09T03:13:43.133Z,54.40
2022-11-09T03:16:11.231Z,51.77
2022-11-09T03:18:40.299Z,47.30
2022-11-09T03:21:08.823Z,54.83
2022-11-09T03:23:38.704Z,48.53
2022-11-09T03:26:06.531Z,49.57
2022-11-09T03:28:34.040Z,50.77
2022-11-09T03:31:02.250Z,49.83
2022-11-09T03:33:30.448Z,58.37
2022-11-09T03:35:57.981Z,59.60
2022-11-09T03:38:25.510Z,57.87
2022-11-09T03:40:53.334Z,56.13
2022-11-09T03:43:21.169Z,61.50
2022-11-09T03:45:49.053Z,60.07
2022-11-09T03:48:16.683Z,68.03
2022-11-09T03:50:44.144Z,48.60
2022-11-09T03:53:13.099Z,44.50
2022-11-09T03:55:42.043Z,52.10
2022-11-09T03:58:13.313Z,50.60
2022-11-09T04:00:41.242Z,41.73
2022-11-09T04:03:08.658Z,43.37
2022-11-09T04:05:36.543Z,40.77
2022-11-09T04:08:04.272Z,39.60
2022-11-09T04:10:31.781Z,40.50
2022-11-09T04:12:59.248Z,59.40
2022-11-09T04:15:26.686Z,53.17
2022-11-09T04:18:02.448Z,53.43
2022-11-09T04:20:32.377Z,52.10
2022-11-09T04:23:04.027Z,49.23
2022-11-09T04:25:38.408Z,43.73
2022-11-09T04:28:08.617Z,38.93
2022-11-09T04:30:37.463Z,41.40
2022-11-09T04:33:05.669Z,50.40
2022-11-09T04:35:35.216Z,45.33
2022-11-09T04:38:08.028Z,50.37
2022-11-09T04:40:36.920Z,44.77
2022-11-09T04:43:07.281Z,49.50
2022-11-09T04:45:35.972Z,56.00
2022-11-09T04:48:07.007Z,59.83
2022-11-09T04:50:34.940Z,62.47
2022-11-09T04:53:11.045Z,49.10
2022-11-09T04:55:39.599Z,62.47
2022-11-09T04:58:08.749Z,51.27
2022-11-09T05:00:37.039Z,47.30
2022-11-09T05:03:07.607Z,42.80
2022-11-09T05:05:36.958Z,47.03
2022-11-09T05:08:06.417Z,45.67
2022-11-09T05:10:34.996Z,56.63
2022-11-09T05:13:06.159Z,49.60
2022-11-09T05:15:35.286Z,46.97
2022-11-09T05:18:03.252Z,54.30
2022-11-09T05:20:31.097Z,49.33
2022-11-09T05:23:19.150Z,42.57
2022-11-09T05:25:47.857Z,47.30
2022-11-09T05:28:15.646Z,44.87
2022-11-09T05:30:43.166Z,44.40
2022-11-09T05:33:10.809Z,52.47
2022-11-09T05:35:38.239Z,65.53
2022-11-09T05:38:08.127Z,67.13
2022-11-09T05:40:35.605Z,72.50
2022-11-09T05:43:03.035Z,75.40
2022-11-09T05:45:45.986Z,65.07
2022-11-09T05:48:16.550Z,53.50
2022-11-09T05:50:44.887Z,50.67
2022-11-09T05:53:27.372Z,47.90
2022-11-09T05:55:55.035Z,43.10
2022-11-09T05:58:22.861Z,47.00
2022-11-09T06:00:50.299Z,59.30
2022-11-09T06:03:18.077Z,62.23
2022-11-09T06:05:45.767Z,44.93
2022-11-09T06:08:15.437Z,50.67
2022-11-09T06:10:43.830Z,57.30
2022-11-09T06:13:11.794Z,55.43
2022-11-09T06:15:39.237Z,53.10
2022-11-09T06:18:06.687Z,50.83
2022-11-09T06:20:35.608Z,53.10
2022-11-09T06:23:04.466Z,53.50
2022-11-09T06:25:33.735Z,57.43
2022-11-09T06:28:01.858Z,60.87
2022-11-09T06:30:29.824Z,63.30
2022-11-09T06:33:01.930Z,76.37
2022-11-09T06:35:30.521Z,58.77
2022-11-09T06:37:59.709Z,66.30
2022-11-09T06:40:28.323Z,66.40
2022-11-09T06:43:00.213Z,71.57
2022-11-09T06:45:29.795Z,64.20
2022-11-09T06:47:59.573Z,64.57
2022-11-09T06:50:30.681Z,64.53
2022-11-09T06:53:01.387Z,85.77
2022-11-09T06:55:30.454Z,74.63
2022-11-09T06:57:58.752Z,67.27
2022-11-09T07:00:28.255Z,62.33
2022-11-09T07:02:55.684Z,65.67
2022-11-09T07:05:23.262Z,64.53
2022-11-09T07:07:51.150Z,62.20
2022-11-09T07:10:18.956Z,59.53
2022-11-09T07:12:46.769Z,56.07
2022-11-09T07:15:14.303Z,53.77
2022-11-09T07:17:42.912Z,58.93
2022-11-09T07:20:12.023Z,59.07
2022-11-09T07:22:39.980Z,64.43
2022-11-09T07:25:09.463Z,64.73
2022-11-09T07:27:37.246Z,65.03
2022-11-09T07:30:05.888Z,59.53
2022-11-09T07:33:07.315Z,69.30
2022-11-09T07:35:27.232Z,56.87
2022-11-09T07:37:54.842Z,62.63
2022-11-09T07:40:22.231Z,59.77
2022-11-09T07:42:52.342Z,57.90
2022-11-09T07:45:19.793Z,57.33
2022-11-09T07:47:47.251Z,59.90
2022-11-09T07:50:15.194Z,58.63
2022-11-09T07:52:42.637Z,53.03
2022-11-09T07:55:10.221Z,50.43
2022-11-09T07:57:37.955Z,49.83
2022-11-09T08:00:06.176Z,58.73
2022-11-09T08:02:39.160Z,53.53
2022-11-09T08:05:07.363Z,51.57
2022-11-09T08:07:35.129Z,51.53
2022-11-09T08:10:02.661Z,51.40
2022-11-09T08:12:35.772Z,51.70
2022-11-09T08:15:05.887Z,47.37
2022-11-09T08:17:33.542Z,46.37
2022-11-09T08:20:01.615Z,55.70
2022-11-09T08:22:29.161Z,50.43
2022-11-09T08:24:56.720Z,61.03
2022-11-09T08:27:24.142Z,40.47
2022-11-09T08:29:51.538Z,46.07
2022-11-09T08:32:18.978Z,47.23
2022-11-09T08:34:49.678Z,47.37
2022-11-09T08:37:17.295Z,46.30
2022-11-09T08:39:44.689Z,47.50
2022-11-09T08:42:12.132Z,48.13
2022-11-09T08:44:39.530Z,43.77
2022-11-09T08:47:07.016Z,45.47
2022-11-09T08:49:34.891Z,41.57
2022-11-09T08:52:02.332Z,39.53
2022-11-09T08:54:29.788Z,45.40
2022-11-09T08:56:57.556Z,38.90
2022-11-09T08:59:25.025Z,37.47
2022-11-09T09:01:52.465Z,40.47
2022-11-09T09:04:21.221Z,42.20
2022-11-09T09:06:48.750Z,38.20
2022-11-09T09:09:16.339Z,35.47
2022-11-09T09:11:43.755Z,76.73
2022-11-09T09:14:11.358Z,41.47
2022-11-09T09:16:41.295Z,38.77
2022-11-09T09:19:08.678Z,35.63
2022-11-09T09:21:36.130Z,32.77
2022-11-09T09:24:04.011Z,48.67
2022-11-09T09:26:31.417Z,34.00
2022-11-09T09:28:58.843Z,32.63
2022-11-09T09:31:26.310Z,39.33
2022-11-09T09:33:53.699Z,32.30
2022-11-09T09:36:23.719Z,39.57
2022-11-09T09:38:53.474Z,39.57
2022-11-09T09:41:41.838Z,34.67
2022-11-09T09:45:00.310Z,37.10
2022-11-09T09:47:54.184Z,31.00
2022-11-09T09:50:55.833Z,33.57
2022-11-09T09:53:37.222Z,33.27
2022-11-09T09:56:19.311Z,27.97
2022-11-09T09:59:34.962Z,27.40
2022-11-09T10:02:02.797Z,28.83
2022-11-09T10:04:40.319Z,34.17
2022-11-09T10:07:21.317Z,31.60
2022-11-09T10:10:06.939Z,31.03
2022-11-09T10:12:49.246Z,31.33
2022-11-09T10:15:24.268Z,32.70
2022-11-09T10:18:21.300Z,27.47
2022-11-09T10:21:21.876Z,28.30
2022-11-09T10:24:10.185Z,30.17
2022-11-09T10:27:40.255Z,26.30
2022-11-09T10:30:23.773Z,28.77
2022-11-09T10:33:21.491Z,23.47
2022-11-09T10:36:27.099Z,23.00
2022-11-09T10:38:59.028Z,24.30
2022-11-09T10:41:46.932Z,27.50
2022-11-09T10:44:32.891Z,25.40
2022-11-09T10:47:20.007Z,25.97
2022-11-09T10:50:25.337Z,25.30
2022-11-09T10:53:21.215Z,22.47
2022-11-09T10:56:21.988Z,21.80
2022-11-09T10:59:49.957Z,19.83
2022-11-09T11:02:44.603Z,19.97
2022-11-09T11:05:32.675Z,38.90
2022-11-09T11:08:32.976Z,21.53
2022-11-09T11:11:35.410Z,19.33
2022-11-09T11:14:36.383Z,21.47
2022-11-09T11:17:29.174Z,18.57
2022-11-09T11:20:33.116Z,21.03
2022-11-09T11:23:25.886Z,18.43
2022-11-09T11:26:26.742Z,20.57
2022-11-09T11:29:44.987Z,21.63
2022-11-09T11:32:31.374Z,21.83
2022-11-09T11:35:34.498Z,17.02
2022-11-09T11:39:07.567Z,20.60
2022-11-09T11:42:33.793Z,20.42
2022-11-09T11:45:42.625Z,20.52
2022-11-09T11:49:12.605Z,18.70
2022-11-09T11:52:10.372Z,16.70
2022-11-09T11:55:14.366Z,16.47
2022-11-09T11:58:19.160Z,22.53
2022-11-09T12:01:57.239Z,18.47
2022-11-09T12:05:41.153Z,13.67
2022-11-09T12:08:45.111Z,27.55
2022-11-09T12:12:12.180Z,21.30
2022-11-09T12:15:34.542Z,19.98
2022-11-09T12:19:16.884Z,14.50
2022-11-09T12:22:29.530Z,15.45
2022-11-09T12:25:27.571Z,17.90
2022-11-09T12:28:50.071Z,15.13
2022-11-09T12:32:06.062Z,15.35
2022-11-09T12:35:19.434Z,17.40
2022-11-09T12:41:38.081Z,19.10
2022-11-09T12:44:32.814Z,24.35
2022-11-09T12:47:32.001Z,15.00
2022-11-09T12:50:21.768Z,14.23
2022-11-09T12:53:08.983Z,17.42
2022-11-09T12:56:02.089Z,19.13
2022-11-09T12:58:48.310Z,14.02
2022-11-09T13:01:34.398Z,13.57
2022-11-09T13:04:23.329Z,19.95
2022-11-09T13:07:19.550Z,15.43
2022-11-09T13:10:06.419Z,18.17
2022-11-09T13:13:22.831Z,14.82
2022-11-09T13:16:33.625Z,12.57
2022-11-09T13:19:45.568Z,14.02
2022-11-09T13:22:52.265Z,15.20
2022-11-09T13:25:48.266Z,18.10
2022-11-09T13:28:34.022Z,15.25
2022-11-09T13:32:09.159Z,15.73
2022-11-09T13:35:00.596Z,16.13
2022-11-09T13:37:54.146Z,17.58
2022-11-09T13:40:42.267Z,21.70
2022-11-09T13:43:35.886Z,15.80
2022-11-09T13:46:34.079Z,15.32
2022-11-09T13:49:44.609Z,16.95
2022-11-09T13:52:50.056Z,14.13
2022-11-09T13:55:43.419Z,15.55
2022-11-09T13:58:38.000Z,14.93
2022-11-09T14:01:46.559Z,14.27
2022-11-09T14:04:43.770Z,15.27
2022-11-09T14:07:35.334Z,21.33
2022-11-09T14:10:54.986Z,15.95
2022-11-09T14:13:50.168Z,14.95
2022-11-09T14:17:02.216Z,14.93
2022-11-09T14:20:30.878Z,16.33
2022-11-09T14:23:31.648Z,17.77
2022-11-09T14:26:22.161Z,15.77
2022-11-09T14:29:23.504Z,22.15
2022-11-09T14:32:35.754Z,13.65
2022-11-09T14:35:35.150Z,12.70
2022-11-09T14:38:32.848Z,16.65
2022-11-09T14:41:27.454Z,13.57
2022-11-09T14:44:40.568Z,16.05
2022-11-09T14:47:34.746Z,15.23
2022-11-09T14:50:31.750Z,22.25
2022-11-09T14:53:24.575Z,21.33
2022-11-09T14:56:19.087Z,22.00
2022-11-09T14:59:07.477Z,17.73
2022-11-09T15:02:05.851Z,17.95
2022-11-09T15:05:01.954Z,20.63
2022-11-09T15:07:48.625Z,28.52
2022-11-09T15:10:35.299Z,67.45
2022-11-09T15:13:38.537Z,571.43
2022-11-09T15:16:32.016Z,182.87
2022-11-09T15:19:39.534Z,331.50
2022-11-09T15:23:15.791Z,178.23
2022-11-09T15:26:01.882Z,85.30
2022-11-09T15:28:50.671Z,83.70
2022-11-09T15:31:36.951Z,96.80
2022-11-09T15:34:27.007Z,252.73
2022-11-09T15:37:47.054Z,367.03
2022-11-09T15:40:33.213Z,176.30
2022-11-09T15:43:29.356Z,145.63
2022-11-09T15:46:23.464Z,84.17
2022-11-09T15:49:30.059Z,151.83
2022-11-09T15:52:16.201Z,171.43
2022-11-09T15:55:02.459Z,66.40
2022-11-09T15:57:56.506Z,28.87
2022-11-09T16:00:45.296Z,24.37
2022-11-09T16:03:35.496Z,29.07
2022-11-09T16:06:27.441Z,30.10
2022-11-09T16:09:13.626Z,29.77
2022-11-09T16:12:08.349Z,38.43
2022-11-09T16:14:54.193Z,44.47
2022-11-09T16:17:41.625Z,56.27
2022-11-09T16:20:27.483Z,55.47
2022-11-09T16:23:13.997Z,60.23
2022-11-09T16:26:04.091Z,42.70
2022-11-09T16:28:52.942Z,50.87
2022-11-09T16:31:51.405Z,42.17
2022-11-09T16:34:37.911Z,46.00
2022-11-09T16:37:25.273Z,52.50
2022-11-09T16:40:17.533Z,38.17
2022-11-09T16:43:04.093Z,31.90
2022-11-09T16:45:51.081Z,28.33
2022-11-09T16:48:38.419Z,31.00
2022-11-09T16:51:24.571Z,24.30
2022-11-09T16:54:10.659Z,22.97
2022-11-09T16:56:57.033Z,26.43
2022-11-09T16:59:44.100Z,30.93
2022-11-09T17:02:30.066Z,24.90
2022-11-09T17:05:16.371Z,24.97
2022-11-09T17:08:02.800Z,24.70
2022-11-09T17:10:48.655Z,32.60
2022-11-09T17:13:34.664Z,30.97
2022-11-09T17:16:20.932Z,30.93
2022-11-09T17:19:06.827Z,25.53
2022-11-09T17:21:53.106Z,26.90
2022-11-09T17:24:39.399Z,32.27
2022-11-09T17:27:27.095Z,25.37
2022-11-09T17:30:14.621Z,25.90
2022-11-09T17:33:01.832Z,26.30
2022-11-09T17:35:48.218Z,24.60
2022-11-09T17:38:35.283Z,24.13
2022-11-09T17:41:21.989Z,21.83
2022-11-09T17:44:08.388Z,23.07
2022-11-09T17:46:54.812Z,26.70
2022-11-09T17:49:41.111Z,27.57
2022-11-09T17:52:27.244Z,28.90
2022-11-09T17:55:15.881Z,19.67
2022-11-09T17:58:03.694Z,23.97
2022-11-09T18:00:51.421Z,31.83
2022-11-09T18:03:38.704Z,26.03
2022-11-09T18:06:29.421Z,21.33
2022-11-09T18:09:40.386Z,22.47
2022-11-09T18:12:23.506Z,25.57
2022-11-09T18:15:09.870Z,28.43
2022-11-09T18:17:57.365Z,36.10
2022-11-09T18:20:43.760Z,35.90
2022-11-09T18:23:29.820Z,39.17
2022-11-09T18:26:16.394Z,37.43
2022-11-09T18:29:03.085Z,36.37
2022-11-09T18:31:51.429Z,29.83
2022-11-09T18:34:38.543Z,26.43
2022-11-09T18:37:26.792Z,23.03
2022-11-09T18:40:13.017Z,26.37
2022-11-09T18:43:05.280Z,29.43
2022-11-09T18:46:04.808Z,26.53
2022-11-09T18:48:56.062Z,30.60
2022-11-09T18:51:43.556Z,30.47
2022-11-09T18:54:31.623Z,29.80
2022-11-09T18:57:20.218Z,27.20
2022-11-09T19:00:08.673Z,23.77
2022-11-09T19:02:54.894Z,29.70
2022-11-09T19:05:43.513Z,25.60
2022-11-09T19:08:48.246Z,23.53
2022-11-09T19:11:34.388Z,25.30
2022-11-09T19:14:20.508Z,27.80
2022-11-09T19:17:08.853Z,26.67
2022-11-09T19:19:56.487Z,23.60
2022-11-09T19:22:42.728Z,32.13
2022-11-09T19:25:28.412Z,30.33
2022-11-09T19:28:15.273Z,32.97
2022-11-09T19:31:01.283Z,27.70
2022-11-09T19:33:47.660Z,33.47
2022-11-09T19:36:33.823Z,34.27
2022-11-09T19:39:19.941Z,29.27
2022-11-09T19:42:06.928Z,28.20
2022-11-09T19:44:56.463Z,27.13
2022-11-09T19:47:42.794Z,28.23
2022-11-09T19:50:28.870Z,23.63
2022-11-09T19:53:14.598Z,27.23
2022-11-09T19:56:05.175Z,29.80
2022-11-09T19:58:59.878Z,25.27
2022-11-09T20:01:46.105Z,27.97
2022-11-09T20:04:33.377Z,32.27
2022-11-09T20:07:21.960Z,27.73
2022-11-09T20:10:31.867Z,31.43
2022-11-09T20:13:24.976Z,32.47
2022-11-09T20:16:12.432Z,35.70
2022-11-09T20:19:19.728Z,34.97
2022-11-09T20:22:06.304Z,28.87
2022-11-09T20:24:52.207Z,30.37
2022-11-09T20:27:40.227Z,27.87
2022-11-09T20:30:26.155Z,34.27
2022-11-09T20:33:14.716Z,32.37
2022-11-09T20:36:00.787Z,29.00
2022-11-09T20:38:48.681Z,36.97
2022-11-09T20:41:35.804Z,28.07
2022-11-09T20:44:24.457Z,30.93
2022-11-09T20:47:10.490Z,39.33
2022-11-09T20:50:00.715Z,37.73
2022-11-09T20:52:46.724Z,35.30
2022-11-09T20:55:36.220Z,35.13
2022-11-09T20:58:23.363Z,28.57
2022-11-09T21:01:16.587Z,37.90
2022-11-09T21:04:05.601Z,32.27
2022-11-09T21:06:51.742Z,35.40
2022-11-09T21:09:37.718Z,31.90
2022-11-09T21:12:25.038Z,35.17
2022-11-09T21:15:14.096Z,33.57
2022-11-09T21:18:00.060Z,36.90
2022-11-09T21:20:46.066Z,44.93
2022-11-09T21:23:50.677Z,35.47
2022-11-09T21:26:55.340Z,41.30
2022-11-09T21:29:52.121Z,37.93
2022-11-09T21:32:39.372Z,35.17
2022-11-09T21:35:26.542Z,34.53
2022-11-09T21:38:12.890Z,32.83
2022-11-09T21:41:24.096Z,26.77
2022-11-09T21:44:12.425Z,31.77
2022-11-09T21:46:59.142Z,34.97
2022-11-09T21:49:45.371Z,31.10
2022-11-09T21:52:31.410Z,37.10
2022-11-09T21:55:17.762Z,34.67
2022-11-09T21:58:04.053Z,34.87
2022-11-09T22:00:49.926Z,38.50
2022-11-09T22:03:37.380Z,41.90
2022-11-09T22:06:25.630Z,43.70
2022-11-09T22:09:18.252Z,44.97
2022-11-09T22:12:22.681Z,44.43
2022-11-09T22:15:28.962Z,45.20
2022-11-09T22:18:36.135Z,49.23
2022-11-09T22:21:30.298Z,43.77
2022-11-09T22:24:16.568Z,51.00
2022-11-09T22:27:02.713Z,44.73
2022-11-09T22:29:48.844Z,52.23
2022-11-09T22:32:34.977Z,45.87
2022-11-09T22:35:21.831Z,46.20
2022-11-09T22:38:08.060Z,43.00
2022-11-09T22:40:58.895Z,40.07
2022-11-09T22:43:45.493Z,38.53
2022-11-09T22:46:31.588Z,39.97
2022-11-09T22:49:19.159Z,37.53
2022-11-09T22:52:06.264Z,34.90
2022-11-09T22:54:51.887Z,36.73
2022-11-09T22:57:38.039Z,37.53
2022-11-09T23:00:24.539Z,40.10
2022-11-09T23:03:10.624Z,39.87
2022-11-09T23:06:03.203Z,33.33
2022-11-09T23:08:49.869Z,44.20
2022-11-09T23:11:36.327Z,38.30
2022-11-09T23:14:42.667Z,39.40
2022-11-09T23:17:47.120Z,38.10
2022-11-09T23:20:35.703Z,32.80
2022-11-09T23:23:21.803Z,36.07
2022-11-09T23:26:09.409Z,37.63
2022-11-09T23:28:55.598Z,36.07
2022-11-09T23:31:41.609Z,31.90
2022-11-09T23:34:27.228Z,36.87
2022-11-09T23:37:13.459Z,33.57
2022-11-09T23:40:00.034Z,38.10
2022-11-09T23:42:46.092Z,41.63
2022-11-09T23:45:35.079Z,34.23
2022-11-09T23:48:21.076Z,37.10
2022-11-09T23:51:08.947Z,38.70
2022-11-09T23:53:54.884Z,32.53
2022-11-09T23:56:40.887Z,36.00
2022-11-09T23:59:26.499Z,35.17
